createdAt,value
2019-03-10T00:00:34.157Z,61.26
2019-03-10T00:03:24.026Z,60.79
2019-03-10T00:06:14.097Z,61.45
2019-03-10T00:09:04.837Z,61.24
2019-03-10T00:11:56.023Z,61.62
2019-03-10T00:14:47.941Z,61.73
2019-03-10T00:17:37.933Z,61.87
2019-03-10T00:20:28.635Z,62.32
2019-03-10T00:23:18.587Z,62.23
2019-03-10T00:26:08.417Z,62.31
2019-03-10T00:28:58.721Z,62.33
2019-03-10T00:31:48.710Z,61.86
2019-03-10T00:34:38.874Z,61.45
2019-03-10T00:37:29.193Z,61.99
2019-03-10T00:41:06.618Z,62.04
2019-03-10T00:44:37.501Z,61.43
2019-03-10T00:48:18.993Z,61.28
2019-03-10T00:51:58.907Z,61.87
2019-03-10T00:54:48.959Z,61.94
2019-03-10T00:57:38.640Z,62.68
2019-03-10T01:00:28.526Z,62.36
2019-03-10T01:03:18.397Z,61.86
2019-03-10T01:06:08.754Z,62.12
2019-03-10T01:08:58.699Z,61.53
2019-03-10T01:11:49.077Z,61.74
2019-03-10T01:14:38.765Z,61.73
2019-03-10T01:17:29.674Z,61.36
2019-03-10T01:20:19.471Z,62.11
2019-03-10T01:23:09.399Z,61.96
2019-03-10T01:25:59.495Z,62.12
2019-03-10T01:28:49.291Z,61.92
2019-03-10T01:32:11.437Z,62.12
2019-03-10T01:35:06.991Z,62.15
2019-03-10T01:37:56.949Z,61.91
2019-03-10T01:40:47.024Z,62.03
2019-03-10T01:43:36.821Z,62.11
2019-03-10T01:46:26.630Z,61.57
2019-03-10T01:49:17.771Z,62.02
2019-03-10T01:52:07.669Z,62.04
2019-03-10T01:54:57.649Z,61.40
2019-03-10T01:57:47.950Z,61.69
2019-03-10T02:00:37.935Z,61.57
2019-03-10T02:03:27.961Z,61.75
2019-03-10T02:06:19.304Z,61.61
2019-03-10T02:09:09.395Z,62.14
2019-03-10T02:12:00.898Z,61.90
2019-03-10T02:14:50.431Z,61.55
2019-03-10T02:17:40.039Z,61.88
2019-03-10T02:20:30.154Z,62.29
2019-03-10T02:23:20.322Z,62.03
2019-03-10T02:26:10.139Z,62.46
2019-03-10T02:29:00.226Z,62.18
2019-03-10T02:31:50.050Z,62.59
2019-03-10T02:34:40.359Z,61.99
2019-03-10T02:37:29.977Z,62.22
2019-03-10T02:40:20.067Z,62.20
2019-03-10T02:43:09.538Z,61.77
2019-03-10T02:45:59.488Z,62.01
2019-03-10T02:48:49.471Z,62.08
2019-03-10T02:51:39.544Z,62.22
2019-03-10T02:54:29.529Z,62.27
2019-03-10T02:57:19.452Z,62.50
2019-03-10T03:00:11.724Z,62.02
2019-03-10T03:03:01.307Z,62.48
2019-03-10T03:05:51.411Z,61.88
2019-03-10T03:08:41.367Z,61.96
2019-03-10T03:11:31.066Z,62.37
2019-03-10T03:14:20.553Z,62.14
2019-03-10T03:17:10.558Z,62.54
2019-03-10T03:20:00.596Z,62.36
2019-03-10T03:22:51.313Z,62.33
2019-03-10T03:25:41.542Z,62.11
2019-03-10T03:28:31.559Z,61.95
2019-03-10T03:31:21.588Z,61.14
2019-03-10T03:34:11.150Z,61.45
2019-03-10T03:37:01.430Z,61.99
2019-03-10T03:39:54.009Z,62.01
2019-03-10T03:42:44.009Z,61.87
2019-03-10T03:45:34.115Z,61.86
2019-03-10T03:48:24.065Z,61.93
2019-03-10T03:51:14.601Z,61.74
2019-03-10T03:54:05.392Z,61.38
2019-03-10T03:56:55.308Z,61.79
2019-03-10T03:59:45.323Z,61.78
2019-03-10T04:02:38.180Z,61.50
2019-03-10T04:05:28.021Z,61.84
2019-03-10T04:08:18.404Z,61.90
2019-03-10T04:11:08.713Z,61.69
2019-03-10T04:13:59.763Z,61.74
2019-03-10T04:16:49.234Z,61.66
2019-03-10T04:19:39.002Z,62.13
2019-03-10T04:22:28.649Z,61.82
2019-03-10T04:25:20.016Z,62.22
2019-03-10T04:28:10.218Z,61.94
2019-03-10T04:31:00.054Z,62.13
2019-03-10T04:33:50.136Z,62.00
2019-03-10T04:36:39.957Z,62.12
2019-03-10T04:39:29.451Z,61.62
2019-03-10T04:42:19.315Z,61.94
2019-03-10T04:45:10.188Z,61.87
2019-03-10T04:48:00.484Z,61.47
2019-03-10T04:50:50.399Z,61.54
2019-03-10T04:53:41.713Z,61.13
2019-03-10T04:56:56.326Z,61.04
2019-03-10T04:59:46.052Z,61.27
2019-03-10T05:02:36.001Z,60.97
2019-03-10T05:05:25.907Z,60.98
2019-03-10T05:08:15.586Z,61.45
2019-03-10T05:11:05.696Z,60.68
2019-03-10T05:13:54.813Z,61.47
2019-03-10T05:16:44.825Z,61.20
2019-03-10T05:19:34.389Z,61.16
2019-03-10T05:22:24.391Z,61.18
2019-03-10T05:25:14.907Z,61.52
2019-03-10T05:28:05.038Z,61.59
2019-03-10T05:30:55.083Z,61.99
2019-03-10T05:33:45.312Z,62.11
2019-03-10T05:36:34.818Z,62.01
2019-03-10T05:39:24.770Z,62.39
2019-03-10T05:42:14.354Z,62.22
2019-03-10T05:45:04.553Z,61.48
2019-03-10T05:47:54.681Z,62.02
2019-03-10T05:50:44.509Z,61.92
2019-03-10T05:53:34.306Z,62.36
2019-03-10T05:56:24.410Z,62.46
2019-03-10T05:59:14.262Z,62.60
2019-03-10T06:02:04.075Z,62.66
2019-03-10T06:04:53.878Z,62.70
2019-03-10T06:07:44.126Z,62.82
2019-03-10T06:10:34.001Z,62.59
2019-03-10T06:13:24.203Z,62.24
2019-03-10T06:16:13.998Z,61.46
2019-03-10T06:19:04.002Z,61.84
2019-03-10T06:21:54.196Z,61.44
2019-03-10T06:24:44.069Z,62.00
2019-03-10T06:27:34.361Z,61.77
2019-03-10T06:30:24.281Z,61.86
2019-03-10T06:33:14.287Z,61.14
2019-03-10T06:36:03.996Z,61.31
2019-03-10T06:38:55.201Z,60.61
2019-03-10T06:41:45.080Z,60.59
2019-03-10T06:44:34.761Z,60.70
2019-03-10T06:47:24.130Z,60.65
2019-03-10T06:50:13.993Z,60.15
2019-03-10T06:53:04.025Z,60.25
2019-03-10T06:55:53.859Z,60.46
2019-03-10T06:58:44.071Z,60.13
2019-03-10T07:01:34.017Z,60.18
2019-03-10T07:04:23.663Z,60.55
2019-03-10T07:07:13.434Z,59.85
2019-03-10T07:10:03.470Z,60.63
2019-03-10T07:12:53.301Z,60.41
2019-03-10T07:15:43.756Z,60.72
2019-03-10T07:18:33.873Z,61.47
2019-03-10T07:21:24.171Z,61.08
2019-03-10T07:24:14.272Z,61.70
2019-03-10T07:27:04.244Z,61.81
2019-03-10T07:30:03.929Z,62.38
2019-03-10T07:33:28.169Z,62.74
2019-03-10T07:36:27.657Z,63.24
2019-03-10T07:39:30.533Z,63.51
2019-03-10T07:42:32.894Z,63.65
2019-03-10T07:45:34.974Z,64.14
2019-03-10T07:48:45.232Z,64.18
2019-03-10T07:51:50.678Z,64.47
2019-03-10T07:55:00.431Z,64.61
2019-03-10T07:58:06.706Z,65.14
2019-03-10T08:01:18.484Z,65.32
2019-03-10T08:04:27.029Z,65.41
2019-03-10T08:07:28.364Z,65.81
2019-03-10T08:10:36.508Z,65.94
2019-03-10T08:13:41.711Z,66.13
2019-03-10T08:16:56.497Z,66.40
2019-03-10T08:20:04.695Z,66.52
2019-03-10T08:23:00.612Z,66.63
2019-03-10T08:26:08.842Z,66.79
2019-03-10T08:29:26.542Z,66.68
2019-03-10T08:32:33.886Z,66.71
2019-03-10T08:35:41.039Z,67.42
2019-03-10T08:38:52.776Z,67.16
2019-03-10T08:41:48.853Z,67.56
2019-03-10T08:44:45.348Z,67.75
2019-03-10T08:47:54.830Z,67.82
2019-03-10T08:50:51.064Z,67.99
2019-03-10T08:53:54.786Z,67.96
2019-03-10T08:56:56.529Z,68.17
2019-03-10T09:00:05.681Z,68.31
2019-03-10T09:03:13.876Z,68.26
2019-03-10T09:06:32.240Z,68.36
2019-03-10T09:09:45.973Z,68.97
2019-03-10T09:12:51.911Z,69.27
2019-03-10T09:16:04.260Z,69.48
2019-03-10T09:19:22.199Z,69.55
2019-03-10T09:22:34.108Z,69.20
2019-03-10T09:26:02.670Z,69.02
2019-03-10T09:29:09.963Z,69.40
2019-03-10T09:32:11.001Z,69.49
2019-03-10T09:35:06.328Z,69.75
2019-03-10T09:38:05.600Z,69.69
2019-03-10T09:41:05.128Z,69.81
2019-03-10T09:44:03.877Z,69.79
2019-03-10T09:47:21.941Z,69.80
2019-03-10T09:50:28.329Z,69.79
2019-03-10T09:53:37.333Z,69.86
2019-03-10T09:56:55.944Z,69.78
2019-03-10T10:00:03.486Z,69.80
2019-03-10T10:03:12.182Z,69.79
2019-03-10T10:06:16.340Z,69.72
2019-03-10T10:09:25.494Z,69.82
2019-03-10T10:12:32.072Z,69.78
2019-03-10T10:15:44.281Z,69.45
2019-03-10T10:18:51.682Z,69.85
2019-03-10T10:21:50.348Z,69.80
2019-03-10T10:24:58.917Z,69.81
2019-03-10T10:27:57.038Z,69.50
2019-03-10T10:31:01.975Z,69.01
2019-03-10T10:34:06.071Z,69.21
2019-03-10T10:37:14.914Z,69.07
2019-03-10T10:40:18.894Z,69.38
2019-03-10T10:43:30.451Z,69.46
2019-03-10T10:46:43.937Z,69.88
2019-03-10T10:49:51.622Z,69.95
2019-03-10T10:53:01.896Z,69.70
2019-03-10T10:56:03.464Z,70.05
2019-03-10T10:59:05.321Z,70.36
2019-03-10T11:02:03.514Z,70.08
2019-03-10T11:05:18.874Z,70.30
2019-03-10T11:08:20.424Z,70.40
2019-03-10T11:11:28.201Z,69.89
2019-03-10T11:14:40.730Z,69.05
2019-03-10T11:17:44.760Z,69.22
2019-03-10T11:20:44.066Z,69.35
2019-03-10T11:24:02.050Z,69.66
2019-03-10T11:27:04.256Z,69.66
2019-03-10T11:30:03.042Z,70.33
2019-03-10T11:33:01.538Z,70.63
2019-03-10T11:36:05.039Z,70.74
2019-03-10T11:39:11.097Z,70.26
2019-03-10T11:42:28.142Z,70.35
2019-03-10T11:45:35.856Z,70.58
2019-03-10T11:48:44.562Z,70.27
2019-03-10T11:51:45.184Z,70.90
2019-03-10T11:54:52.472Z,70.40
2019-03-10T11:57:47.279Z,70.77
2019-03-10T12:00:42.068Z,70.44
2019-03-10T12:03:53.102Z,70.44
2019-03-10T12:07:00.948Z,70.85
2019-03-10T12:09:50.582Z,71.03
2019-03-10T12:12:40.705Z,70.54
2019-03-10T12:15:30.642Z,71.20
2019-03-10T12:18:20.417Z,71.15
2019-03-10T12:21:10.244Z,70.37
2019-03-10T12:24:00.388Z,75.47
2019-03-10T12:26:50.656Z,76.11
2019-03-10T12:29:42.146Z,78.51
2019-03-10T12:32:32.013Z,78.51
2019-03-10T12:35:22.015Z,77.65
2019-03-10T12:38:11.642Z,78.73
2019-03-10T12:41:01.688Z,79.48
2019-03-10T12:43:52.499Z,79.00
2019-03-10T12:46:42.085Z,79.46
2019-03-10T12:49:31.640Z,78.18
2019-03-10T12:52:21.847Z,78.45
2019-03-10T12:55:11.793Z,78.21
2019-03-10T12:58:01.509Z,78.36
2019-03-10T13:00:51.529Z,77.11
2019-03-10T13:03:41.527Z,77.61
2019-03-10T13:06:31.656Z,77.68
2019-03-10T13:09:21.436Z,77.55
2019-03-10T13:12:11.378Z,78.00
2019-03-10T13:15:01.528Z,77.59
2019-03-10T13:17:51.763Z,78.33
2019-03-10T13:20:41.691Z,78.97
2019-03-10T13:23:31.445Z,79.26
2019-03-10T13:26:21.812Z,79.17
2019-03-10T13:29:12.056Z,79.20
2019-03-10T13:32:02.133Z,79.38
2019-03-10T13:34:52.190Z,79.51
2019-03-10T13:37:41.551Z,79.34
2019-03-10T13:40:31.685Z,79.35
2019-03-10T13:43:21.490Z,79.29
2019-03-10T13:46:11.191Z,79.78
2019-03-10T13:49:00.740Z,79.01
2019-03-10T13:51:50.457Z,79.40
2019-03-10T13:54:40.395Z,79.63
2019-03-10T13:57:30.516Z,79.91
2019-03-10T14:00:22.548Z,79.80
2019-03-10T14:03:12.223Z,79.82
2019-03-10T14:06:02.372Z,79.75
2019-03-10T14:08:52.932Z,78.62
2019-03-10T14:11:42.692Z,78.39
2019-03-10T14:14:32.335Z,77.84
2019-03-10T14:17:22.374Z,77.83
2019-03-10T14:20:12.405Z,77.66
2019-03-10T14:23:02.192Z,77.75
2019-03-10T14:25:52.127Z,77.32
2019-03-10T14:28:43.280Z,78.34
2019-03-10T14:31:33.620Z,77.96
2019-03-10T14:34:24.045Z,78.34
2019-03-10T14:37:13.288Z,78.11
2019-03-10T14:40:02.964Z,78.45
2019-03-10T14:42:53.324Z,78.50
2019-03-10T14:45:43.002Z,78.99
2019-03-10T14:48:32.933Z,79.27
2019-03-10T14:51:22.551Z,79.54
2019-03-10T14:54:12.496Z,78.97
2019-03-10T14:57:02.973Z,78.95
2019-03-10T14:59:53.028Z,79.18
2019-03-10T15:02:43.110Z,78.75
2019-03-10T15:05:32.860Z,79.71
2019-03-10T15:08:22.758Z,79.65
2019-03-10T15:11:12.636Z,78.93
2019-03-10T15:14:02.439Z,79.51
2019-03-10T15:16:52.630Z,78.73
2019-03-10T15:19:42.574Z,78.55
2019-03-10T15:22:32.222Z,78.56
2019-03-10T15:25:24.778Z,77.66
2019-03-10T15:28:13.896Z,78.36
2019-03-10T15:31:03.664Z,78.43
2019-03-10T15:33:53.628Z,77.98
2019-03-10T15:36:43.144Z,77.95
2019-03-10T15:39:32.805Z,78.92
2019-03-10T15:42:22.755Z,78.93
2019-03-10T15:45:13.322Z,79.36
2019-03-10T15:48:03.479Z,78.62
2019-03-10T15:50:53.387Z,77.97
2019-03-10T15:53:43.446Z,78.17
2019-03-10T15:56:33.606Z,78.67
2019-03-10T15:59:23.282Z,78.92
2019-03-10T16:02:13.203Z,78.54
2019-03-10T16:05:03.669Z,78.43
2019-03-10T16:07:53.753Z,78.80
2019-03-10T16:10:44.956Z,78.23
2019-03-10T16:13:35.130Z,79.04
2019-03-10T16:16:25.335Z,79.03
2019-03-10T16:19:15.090Z,78.50
2019-03-10T16:22:04.913Z,78.21
2019-03-10T16:24:55.248Z,78.20
2019-03-10T16:27:45.428Z,78.13
2019-03-10T16:30:35.380Z,76.80
2019-03-10T16:33:25.634Z,77.29
2019-03-10T16:36:15.831Z,77.06
2019-03-10T16:39:09.048Z,76.95
2019-03-10T16:41:58.982Z,77.00
2019-03-10T16:44:48.334Z,77.18
2019-03-10T16:47:38.248Z,77.80
2019-03-10T16:50:28.236Z,77.10
2019-03-10T16:53:27.197Z,77.36
2019-03-10T16:56:17.033Z,77.92
2019-03-10T16:59:06.610Z,77.21
2019-03-10T17:01:56.310Z,75.43
2019-03-10T17:04:45.780Z,75.81
2019-03-10T17:07:35.808Z,75.21
2019-03-10T17:10:26.269Z,75.49
2019-03-10T17:13:15.972Z,74.64
2019-03-10T17:16:06.128Z,72.43
2019-03-10T17:18:56.219Z,73.17
2019-03-10T17:21:46.264Z,72.41
2019-03-10T17:24:36.477Z,72.34
2019-03-10T17:27:26.392Z,72.15
2019-03-10T17:30:18.896Z,72.68
2019-03-10T17:33:10.285Z,68.34
2019-03-10T17:36:00.409Z,70.29
2019-03-10T17:38:49.977Z,69.64
2019-03-10T17:41:40.360Z,69.81
2019-03-10T17:44:40.362Z,71.05
2019-03-10T17:47:22.021Z,68.21
2019-03-10T17:50:13.298Z,66.75
2019-03-10T17:53:03.477Z,70.75
2019-03-10T17:55:53.255Z,67.79
2019-03-10T17:58:43.448Z,71.06
2019-03-10T18:01:33.888Z,69.50
2019-03-10T18:04:24.030Z,70.51
2019-03-10T18:07:14.189Z,66.34
2019-03-10T18:10:04.799Z,68.18
2019-03-10T18:12:54.896Z,66.68
2019-03-10T18:15:45.042Z,69.80
2019-03-10T18:18:35.102Z,70.08
2019-03-10T18:21:26.029Z,68.72
2019-03-10T18:24:16.026Z,66.17
2019-03-10T18:27:06.403Z,70.43
2019-03-10T18:29:55.873Z,67.83
2019-03-10T18:32:46.437Z,68.86
2019-03-10T18:35:36.278Z,66.46
2019-03-10T18:38:26.230Z,63.64
2019-03-10T18:41:16.403Z,66.63
2019-03-10T18:44:05.865Z,66.95
2019-03-10T18:46:54.827Z,66.50
2019-03-10T18:49:44.570Z,66.30
2019-03-10T18:52:34.443Z,68.90
2019-03-10T18:55:23.820Z,63.45
2019-03-10T18:58:19.750Z,65.21
2019-03-10T19:01:09.681Z,61.94
2019-03-10T19:03:59.513Z,63.15
2019-03-10T19:06:49.849Z,65.87
2019-03-10T19:09:39.519Z,63.25
2019-03-10T19:12:29.019Z,64.33
2019-03-10T19:15:18.881Z,66.62
2019-03-10T19:18:08.596Z,66.19
2019-03-10T19:20:59.258Z,68.38
2019-03-10T19:23:50.225Z,67.77
2019-03-10T19:26:40.137Z,64.10
2019-03-10T19:29:30.213Z,66.81
2019-03-10T19:32:19.543Z,65.75
2019-03-10T19:35:10.022Z,65.25
2019-03-10T19:38:00.107Z,62.90
2019-03-10T19:40:49.585Z,63.77
2019-03-10T19:43:39.815Z,63.99
2019-03-10T19:46:30.219Z,61.20
2019-03-10T19:49:20.095Z,62.01
2019-03-10T19:52:09.956Z,64.23
2019-03-10T19:54:59.888Z,63.89
2019-03-10T19:57:49.940Z,62.58
2019-03-10T20:00:40.187Z,63.25
2019-03-10T20:03:30.032Z,61.80
2019-03-10T20:06:20.205Z,64.40
2019-03-10T20:09:10.582Z,65.56
2019-03-10T20:12:02.420Z,65.79
2019-03-10T20:14:51.663Z,65.99
2019-03-10T20:17:41.226Z,66.91
2019-03-10T20:20:32.232Z,67.17
2019-03-10T20:23:22.400Z,68.18
2019-03-10T20:26:12.660Z,69.58
2019-03-10T20:29:02.358Z,69.14
2019-03-10T20:31:52.779Z,69.24
2019-03-10T20:34:42.655Z,69.33
2019-03-10T20:37:34.259Z,71.31
2019-03-10T20:40:24.033Z,71.11
2019-03-10T20:43:13.530Z,71.07
2019-03-10T20:46:03.389Z,71.20
2019-03-10T20:48:52.830Z,72.62
2019-03-10T20:51:42.673Z,72.57
2019-03-10T20:54:32.621Z,72.20
2019-03-10T20:57:22.153Z,72.46
2019-03-10T21:00:16.366Z,72.60
2019-03-10T21:03:07.476Z,72.89
2019-03-10T21:05:57.600Z,73.02
2019-03-10T21:08:47.115Z,73.04
2019-03-10T21:11:37.189Z,73.41
2019-03-10T21:14:27.547Z,73.93
2019-03-10T21:17:17.840Z,72.90
2019-03-10T21:20:10.071Z,73.40
2019-03-10T21:22:59.833Z,73.64
2019-03-10T21:25:50.108Z,73.45
2019-03-10T21:28:56.490Z,73.17
2019-03-10T21:32:01.819Z,72.93
2019-03-10T21:34:55.525Z,72.73
2019-03-10T21:37:51.072Z,73.58
2019-03-10T21:40:41.892Z,73.46
2019-03-10T21:43:31.619Z,72.48
2019-03-10T21:46:21.101Z,73.48
2019-03-10T21:49:10.808Z,73.11
2019-03-10T21:52:00.660Z,74.25
2019-03-10T21:54:50.545Z,74.08
2019-03-10T21:57:40.403Z,74.19
2019-03-10T22:00:30.696Z,73.88
2019-03-10T22:03:20.564Z,71.88
2019-03-10T22:06:10.077Z,73.82
2019-03-10T22:09:00.906Z,74.49
2019-03-10T22:11:52.362Z,73.54
2019-03-10T22:14:42.169Z,73.98
2019-03-10T22:17:35.300Z,74.43
2019-03-10T22:20:25.728Z,72.03
2019-03-10T22:23:15.563Z,73.72
2019-03-10T22:26:05.749Z,73.52
2019-03-10T22:28:55.781Z,72.85
2019-03-10T22:31:45.912Z,72.32
2019-03-10T22:34:35.809Z,72.66
2019-03-10T22:37:25.755Z,72.26
2019-03-10T22:40:15.780Z,72.44
2019-03-10T22:43:05.547Z,73.30
2019-03-10T22:45:55.281Z,73.76
2019-03-10T22:48:44.897Z,71.28
2019-03-10T22:51:34.724Z,72.41
2019-03-10T22:54:24.783Z,72.06
2019-03-10T22:57:15.041Z,72.79
2019-03-10T23:00:11.445Z,73.39
2019-03-10T23:03:02.874Z,72.94
2019-03-10T23:05:53.092Z,73.46
2019-03-10T23:08:55.550Z,72.95
2019-03-10T23:11:45.320Z,73.25
2019-03-10T23:14:34.867Z,73.43
2019-03-10T23:17:24.987Z,72.01
2019-03-10T23:20:14.955Z,72.19
2019-03-10T23:23:04.628Z,72.82
2019-03-10T23:25:54.932Z,72.28
2019-03-10T23:28:44.509Z,71.94
2019-03-10T23:31:34.593Z,72.29
2019-03-10T23:34:24.361Z,72.59
2019-03-10T23:37:14.478Z,72.61
2019-03-10T23:40:04.766Z,72.79
2019-03-10T23:42:55.248Z,72.89
2019-03-10T23:45:45.309Z,72.24
2019-03-10T23:48:35.477Z,72.44
2019-03-10T23:51:25.510Z,72.15
2019-03-10T23:54:15.664Z,73.52
2019-03-10T23:57:05.406Z,72.58
2019-03-10T23:59:54.959Z,71.94
